sensor_id;sensor_type;location;lat;lon;timestamp;P1;durP1;ratioP1;P2;durP2;ratioP2
68365;SDS011;55283;51.466;5.478;2022-08-21T00:00:03;4.57;;;2.75;;
68365;SDS011;55283;51.466;5.478;2022-08-21T00:02:32;5.00;;;2.80;;
68365;SDS011;55283;51.466;5.478;2022-08-21T00:04:58;4.13;;;2.83;;
68365;SDS011;55283;51.466;5.478;2022-08-21T00:07:23;4.43;;;2.83;;
68365;SDS011;55283;51.466;5.478;2022-08-21T00:09:52;5.13;;;3.35;;
68365;SDS011;55283;51.466;5.478;2022-08-21T00:12:18;4.05;;;2.90;;
68365;SDS011;55283;51.466;5.478;2022-08-21T00:14:46;3.77;;;2.60;;
68365;SDS011;55283;51.466;5.478;2022-08-21T00:17:12;5.28;;;2.90;;
68365;SDS011;55283;51.466;5.478;2022-08-21T00:19:37;5.40;;;2.90;;
68365;SDS011;55283;51.466;5.478;2022-08-21T00:22:03;4.50;;;3.10;;
68365;SDS011;55283;51.466;5.478;2022-08-21T00:24:28;5.30;;;2.90;;
68365;SDS011;55283;51.466;5.478;2022-08-21T00:26:56;5.37;;;2.70;;
68365;SDS011;55283;51.466;5.478;2022-08-21T00:29:21;5.13;;;2.90;;
68365;SDS011;55283;51.466;5.478;2022-08-21T00:31:47;4.17;;;2.87;;
68365;SDS011;55283;51.466;5.478;2022-08-21T00:34:12;4.20;;;2.77;;
68365;SDS011;55283;51.466;5.478;2022-08-21T00:36:38;4.15;;;3.00;;
68365;SDS011;55283;51.466;5.478;2022-08-21T00:39:07;4.17;;;2.63;;
68365;SDS011;55283;51.466;5.478;2022-08-21T00:41:36;4.22;;;2.63;;
68365;SDS011;55283;51.466;5.478;2022-08-21T00:44:03;4.95;;;2.70;;
68365;SDS011;55283;51.466;5.478;2022-08-21T00:46:29;5.20;;;2.80;;
68365;SDS011;55283;51.466;5.478;2022-08-21T00:48:55;4.40;;;3.10;;
68365;SDS011;55283;51.466;5.478;2022-08-21T00:51:24;5.82;;;2.88;;
68365;SDS011;55283;51.466;5.478;2022-08-21T00:53:58;4.07;;;2.70;;
68365;SDS011;55283;51.466;5.478;2022-08-21T00:56:26;4.13;;;2.60;;
68365;SDS011;55283;51.466;5.478;2022-08-21T00:58:53;4.25;;;2.70;;
68365;SDS011;55283;51.466;5.478;2022-08-21T01:01:22;4.38;;;2.95;;
68365;SDS011;55283;51.466;5.478;2022-08-21T01:03:48;5.73;;;2.80;;
68365;SDS011;55283;51.466;5.478;2022-08-21T01:06:14;5.50;;;2.60;;
68365;SDS011;55283;51.466;5.478;2022-08-21T01:08:39;7.90;;;2.77;;
68365;SDS011;55283;51.466;5.478;2022-08-21T01:11:05;4.83;;;2.40;;
68365;SDS011;55283;51.466;5.478;2022-08-21T01:13:32;4.35;;;2.72;;
68365;SDS011;55283;51.466;5.478;2022-08-21T01:16:01;5.22;;;2.80;;
68365;SDS011;55283;51.466;5.478;2022-08-21T01:18:29;4.87;;;3.10;;
68365;SDS011;55283;51.466;5.478;2022-08-21T01:21:08;3.63;;;2.88;;
68365;SDS011;55283;51.466;5.478;2022-08-21T01:23:41;5.78;;;2.45;;
68365;SDS011;55283;51.466;5.478;2022-08-21T01:26:09;3.33;;;2.60;;
68365;SDS011;55283;51.466;5.478;2022-08-21T01:28:46;4.57;;;2.50;;
68365;SDS011;55283;51.466;5.478;2022-08-21T01:31:17;4.82;;;2.60;;
68365;SDS011;55283;51.466;5.478;2022-08-21T01:33:47;5.47;;;2.60;;
68365;SDS011;55283;51.466;5.478;2022-08-21T01:36:13;5.50;;;2.47;;
68365;SDS011;55283;51.466;5.478;2022-08-21T01:38:38;3.93;;;2.40;;
68365;SDS011;55283;51.466;5.478;2022-08-21T01:41:03;4.80;;;2.67;;
68365;SDS011;55283;51.466;5.478;2022-08-21T01:43:29;4.72;;;2.33;;
68365;SDS011;55283;51.466;5.478;2022-08-21T01:45:57;5.70;;;2.40;;
68365;SDS011;55283;51.466;5.478;2022-08-21T01:48:22;5.35;;;2.70;;
68365;SDS011;55283;51.466;5.478;2022-08-21T01:50:47;3.63;;;2.40;;
68365;SDS011;55283;51.466;5.478;2022-08-21T01:53:18;4.33;;;2.30;;
68365;SDS011;55283;51.466;5.478;2022-08-21T01:55:46;3.55;;;2.58;;
68365;SDS011;55283;51.466;5.478;2022-08-21T01:58:11;3.27;;;2.40;;
68365;SDS011;55283;51.466;5.478;2022-08-21T02:00:36;6.83;;;2.90;;
68365;SDS011;55283;51.466;5.478;2022-08-21T02:03:02;6.27;;;2.60;;
68365;SDS011;55283;51.466;5.478;2022-08-21T02:05:28;3.33;;;2.20;;
68365;SDS011;55283;51.466;5.478;2022-08-21T02:07:56;4.13;;;2.60;;
68365;SDS011;55283;51.466;5.478;2022-08-21T02:10:23;4.37;;;2.47;;
68365;SDS011;55283;51.466;5.478;2022-08-21T02:12:51;5.18;;;2.60;;
68365;SDS011;55283;51.466;5.478;2022-08-21T02:15:17;4.60;;;2.55;;
68365;SDS011;55283;51.466;5.478;2022-08-21T02:17:47;2.83;;;2.20;;
68365;SDS011;55283;51.466;5.478;2022-08-21T02:20:19;4.85;;;2.42;;
68365;SDS011;55283;51.466;5.478;2022-08-21T02:22:47;4.40;;;2.80;;
68365;SDS011;55283;51.466;5.478;2022-08-21T02:25:14;5.22;;;2.30;;
68365;SDS011;55283;51.466;5.478;2022-08-21T02:27:41;4.50;;;2.50;;
68365;SDS011;55283;51.466;5.478;2022-08-21T02:30:12;3.30;;;2.40;;
68365;SDS011;55283;51.466;5.478;2022-08-21T02:32:40;3.67;;;2.33;;
68365;SDS011;55283;51.466;5.478;2022-08-21T02:35:08;4.43;;;2.50;;
68365;SDS011;55283;51.466;5.478;2022-08-21T02:37:42;4.63;;;2.47;;
68365;SDS011;55283;51.466;5.478;2022-08-21T02:40:16;3.97;;;2.55;;
68365;SDS011;55283;51.466;5.478;2022-08-21T02:42:43;5.47;;;2.57;;
68365;SDS011;55283;51.466;5.478;2022-08-21T02:45:09;4.85;;;2.60;;
68365;SDS011;55283;51.466;5.478;2022-08-21T02:47:36;3.58;;;2.55;;
68365;SDS011;55283;51.466;5.478;2022-08-21T02:50:04;7.80;;;2.80;;
68365;SDS011;55283;51.466;5.478;2022-08-21T02:52:33;3.70;;;2.40;;
68365;SDS011;55283;51.466;5.478;2022-08-21T02:54:59;5.55;;;2.53;;
68365;SDS011;55283;51.466;5.478;2022-08-21T02:57:25;4.77;;;2.87;;
68365;SDS011;55283;51.466;5.478;2022-08-21T02:59:51;5.32;;;2.50;;
68365;SDS011;55283;51.466;5.478;2022-08-21T03:02:19;5.47;;;2.57;;
68365;SDS011;55283;51.466;5.478;2022-08-21T03:04:50;4.10;;;2.42;;
68365;SDS011;55283;51.466;5.478;2022-08-21T03:07:15;5.45;;;3.05;;
68365;SDS011;55283;51.466;5.478;2022-08-21T03:09:40;4.83;;;2.73;;
68365;SDS011;55283;51.466;5.478;2022-08-21T03:12:09;3.10;;;2.60;;
68365;SDS011;55283;51.466;5.478;2022-08-21T03:14:34;4.43;;;2.83;;
68365;SDS011;55283;51.466;5.478;2022-08-21T03:17:00;4.17;;;2.60;;
68365;SDS011;55283;51.466;5.478;2022-08-21T03:19:28;6.10;;;2.63;;
68365;SDS011;55283;51.466;5.478;2022-08-21T03:21:56;5.53;;;2.80;;
68365;SDS011;55283;51.466;5.478;2022-08-21T03:24:21;4.68;;;2.47;;
68365;SDS011;55283;51.466;5.478;2022-08-21T03:26:47;4.37;;;2.80;;
68365;SDS011;55283;51.466;5.478;2022-08-21T03:29:12;4.73;;;2.80;;
68365;SDS011;55283;51.466;5.478;2022-08-21T03:31:37;4.50;;;2.83;;
68365;SDS011;55283;51.466;5.478;2022-08-21T03:34:05;5.60;;;2.88;;
68365;SDS011;55283;51.466;5.478;2022-08-21T03:36:30;5.87;;;2.60;;
68365;SDS011;55283;51.466;5.478;2022-08-21T03:38:58;4.77;;;2.50;;
68365;SDS011;55283;51.466;5.478;2022-08-21T03:41:23;4.70;;;2.60;;
68365;SDS011;55283;51.466;5.478;2022-08-21T03:43:49;5.20;;;2.53;;
68365;SDS011;55283;51.466;5.478;2022-08-21T03:46:14;3.13;;;2.30;;
68365;SDS011;55283;51.466;5.478;2022-08-21T03:48:39;5.13;;;2.50;;
68365;SDS011;55283;51.466;5.478;2022-08-21T03:51:05;6.00;;;2.70;;
68365;SDS011;55283;51.466;5.478;2022-08-21T03:53:31;5.80;;;2.80;;
68365;SDS011;55283;51.466;5.478;2022-08-21T03:55:57;3.78;;;2.55;;
68365;SDS011;55283;51.466;5.478;2022-08-21T03:58:26;5.40;;;2.60;;
68365;SDS011;55283;51.466;5.478;2022-08-21T04:00:54;5.57;;;2.70;;
68365;SDS011;55283;51.466;5.478;2022-08-21T04:03:21;5.43;;;2.58;;
68365;SDS011;55283;51.466;5.478;2022-08-21T04:05:47;4.70;;;2.80;;
68365;SDS011;55283;51.466;5.478;2022-08-21T04:08:13;4.35;;;2.45;;
68365;SDS011;55283;51.466;5.478;2022-08-21T04:10:42;3.87;;;2.50;;
68365;SDS011;55283;51.466;5.478;2022-08-21T04:13:08;4.18;;;2.72;;
68365;SDS011;55283;51.466;5.478;2022-08-21T04:15:34;4.17;;;2.67;;
68365;SDS011;55283;51.466;5.478;2022-08-21T04:18:00;4.87;;;2.70;;
68365;SDS011;55283;51.466;5.478;2022-08-21T04:20:26;3.80;;;2.70;;
68365;SDS011;55283;51.466;5.478;2022-08-21T04:22:52;5.30;;;2.55;;
68365;SDS011;55283;51.466;5.478;2022-08-21T04:25:19;5.43;;;2.30;;
68365;SDS011;55283;51.466;5.478;2022-08-21T04:27:46;4.07;;;2.50;;
68365;SDS011;55283;51.466;5.478;2022-08-21T04:30:12;4.20;;;2.60;;
68365;SDS011;55283;51.466;5.478;2022-08-21T04:32:41;3.63;;;2.50;;
68365;SDS011;55283;51.466;5.478;2022-08-21T04:35:10;5.18;;;2.78;;
68365;SDS011;55283;51.466;5.478;2022-08-21T04:37:36;5.28;;;2.58;;
68365;SDS011;55283;51.466;5.478;2022-08-21T04:40:02;4.67;;;2.40;;
68365;SDS011;55283;51.466;5.478;2022-08-21T04:42:29;4.70;;;2.50;;
68365;SDS011;55283;51.466;5.478;2022-08-21T04:44:55;4.20;;;2.53;;
68365;SDS011;55283;51.466;5.478;2022-08-21T04:47:23;8.18;;;2.60;;
68365;SDS011;55283;51.466;5.478;2022-08-21T04:49:49;7.63;;;2.33;;
68365;SDS011;55283;51.466;5.478;2022-08-21T04:52:19;6.00;;;2.63;;
68365;SDS011;55283;51.466;5.478;2022-08-21T04:54:50;5.07;;;2.63;;
68365;SDS011;55283;51.466;5.478;2022-08-21T04:57:17;6.88;;;2.60;;
68365;SDS011;55283;51.466;5.478;2022-08-21T04:59:47;8.73;;;2.80;;
68365;SDS011;55283;51.466;5.478;2022-08-21T05:02:14;11.15;;;2.70;;
68365;SDS011;55283;51.466;5.478;2022-08-21T05:04:44;10.73;;;2.80;;
68365;SDS011;55283;51.466;5.478;2022-08-21T05:07:15;9.45;;;2.72;;
68365;SDS011;55283;51.466;5.478;2022-08-21T05:09:43;7.38;;;2.92;;
68365;SDS011;55283;51.466;5.478;2022-08-21T05:12:09;15.83;;;3.50;;
68365;SDS011;55283;51.466;5.478;2022-08-21T05:14:35;11.60;;;3.17;;
68365;SDS011;55283;51.466;5.478;2022-08-21T05:17:01;9.27;;;3.25;;
68365;SDS011;55283;51.466;5.478;2022-08-21T05:19:26;9.13;;;3.40;;
68365;SDS011;55283;51.466;5.478;2022-08-21T05:21:52;10.10;;;3.13;;
68365;SDS011;55283;51.466;5.478;2022-08-21T05:24:19;10.13;;;3.20;;
68365;SDS011;55283;51.466;5.478;2022-08-21T05:26:44;9.30;;;3.28;;
68365;SDS011;55283;51.466;5.478;2022-08-21T05:29:16;7.38;;;2.88;;
68365;SDS011;55283;51.466;5.478;2022-08-21T05:31:41;8.30;;;3.00;;
68365;SDS011;55283;51.466;5.478;2022-08-21T05:34:07;9.85;;;3.10;;
68365;SDS011;55283;51.466;5.478;2022-08-21T05:36:33;9.03;;;3.00;;
68365;SDS011;55283;51.466;5.478;2022-08-21T05:38:58;9.25;;;2.88;;
68365;SDS011;55283;51.466;5.478;2022-08-21T05:41:24;9.73;;;2.77;;
68365;SDS011;55283;51.466;5.478;2022-08-21T05:43:52;10.23;;;2.70;;
68365;SDS011;55283;51.466;5.478;2022-08-21T05:46:17;6.67;;;2.53;;
68365;SDS011;55283;51.466;5.478;2022-08-21T05:48:43;10.10;;;2.70;;
68365;SDS011;55283;51.466;5.478;2022-08-21T05:51:09;9.93;;;2.50;;
68365;SDS011;55283;51.466;5.478;2022-08-21T05:53:43;5.55;;;2.47;;
68365;SDS011;55283;51.466;5.478;2022-08-21T05:56:12;8.60;;;2.60;;
68365;SDS011;55283;51.466;5.478;2022-08-21T05:58:38;9.47;;;2.77;;
68365;SDS011;55283;51.466;5.478;2022-08-21T06:01:06;6.15;;;2.65;;
68365;SDS011;55283;51.466;5.478;2022-08-21T06:03:35;5.45;;;2.40;;
68365;SDS011;55283;51.466;5.478;2022-08-21T06:06:05;7.55;;;2.80;;
68365;SDS011;55283;51.466;5.478;2022-08-21T06:08:31;7.23;;;2.63;;
68365;SDS011;55283;51.466;5.478;2022-08-21T06:10:58;5.03;;;2.20;;
68365;SDS011;55283;51.466;5.478;2022-08-21T06:13:25;8.43;;;2.50;;
68365;SDS011;55283;51.466;5.478;2022-08-21T06:16:00;10.68;;;2.60;;
68365;SDS011;55283;51.466;5.478;2022-08-21T06:18:31;8.63;;;2.55;;
68365;SDS011;55283;51.466;5.478;2022-08-21T06:20:57;10.23;;;2.77;;
68365;SDS011;55283;51.466;5.478;2022-08-21T06:23:25;7.22;;;2.50;;
68365;SDS011;55283;51.466;5.478;2022-08-21T06:25:50;7.20;;;2.50;;
68365;SDS011;55283;51.466;5.478;2022-08-21T06:28:16;8.27;;;2.50;;
68365;SDS011;55283;51.466;5.478;2022-08-21T06:30:41;7.17;;;2.53;;
68365;SDS011;55283;51.466;5.478;2022-08-21T06:33:09;10.43;;;2.90;;
68365;SDS011;55283;51.466;5.478;2022-08-21T06:35:35;7.75;;;2.67;;
68365;SDS011;55283;51.466;5.478;2022-08-21T06:38:00;8.00;;;2.30;;
68365;SDS011;55283;51.466;5.478;2022-08-21T06:40:27;8.03;;;2.37;;
68365;SDS011;55283;51.466;5.478;2022-08-21T06:42:53;12.95;;;2.70;;
68365;SDS011;55283;51.466;5.478;2022-08-21T06:45:19;7.57;;;2.93;;
68365;SDS011;55283;51.466;5.478;2022-08-21T06:47:45;5.95;;;2.35;;
68365;SDS011;55283;51.466;5.478;2022-08-21T06:50:10;11.10;;;2.97;;
68365;SDS011;55283;51.466;5.478;2022-08-21T06:52:38;7.93;;;2.42;;
68365;SDS011;55283;51.466;5.478;2022-08-21T06:55:04;6.47;;;2.50;;
68365;SDS011;55283;51.466;5.478;2022-08-21T06:57:31;7.47;;;2.47;;
68365;SDS011;55283;51.466;5.478;2022-08-21T06:59:57;8.90;;;2.57;;
68365;SDS011;55283;51.466;5.478;2022-08-21T07:02:22;6.93;;;2.43;;
68365;SDS011;55283;51.466;5.478;2022-08-21T07:04:48;9.80;;;2.77;;
68365;SDS011;55283;51.466;5.478;2022-08-21T07:07:13;9.43;;;2.37;;
68365;SDS011;55283;51.466;5.478;2022-08-21T07:09:39;5.97;;;2.37;;
68365;SDS011;55283;51.466;5.478;2022-08-21T07:12:07;11.03;;;2.53;;
68365;SDS011;55283;51.466;5.478;2022-08-21T07:14:33;8.27;;;2.57;;
68365;SDS011;55283;51.466;5.478;2022-08-21T07:17:00;8.00;;;2.50;;
68365;SDS011;55283;51.466;5.478;2022-08-21T07:19:26;9.10;;;2.60;;
68365;SDS011;55283;51.466;5.478;2022-08-21T07:21:53;9.02;;;2.42;;
68365;SDS011;55283;51.466;5.478;2022-08-21T07:24:23;11.88;;;2.50;;
68365;SDS011;55283;51.466;5.478;2022-08-21T07:26:48;8.90;;;2.70;;
68365;SDS011;55283;51.466;5.478;2022-08-21T07:29:16;7.13;;;2.23;;
68365;SDS011;55283;51.466;5.478;2022-08-21T07:31:44;7.45;;;2.47;;
68365;SDS011;55283;51.466;5.478;2022-08-21T07:34:13;8.65;;;2.38;;
68365;SDS011;55283;51.466;5.478;2022-08-21T07:36:39;7.17;;;2.00;;
68365;SDS011;55283;51.466;5.478;2022-08-21T07:39:04;8.10;;;2.70;;
68365;SDS011;55283;51.466;5.478;2022-08-21T07:41:29;8.13;;;2.33;;
68365;SDS011;55283;51.466;5.478;2022-08-21T07:43:57;6.15;;;2.45;;
68365;SDS011;55283;51.466;5.478;2022-08-21T07:46:32;9.43;;;2.43;;
68365;SDS011;55283;51.466;5.478;2022-08-21T07:48:57;8.43;;;2.72;;
68365;SDS011;55283;51.466;5.478;2022-08-21T07:51:29;7.10;;;2.40;;
68365;SDS011;55283;51.466;5.478;2022-08-21T07:53:55;8.75;;;2.63;;
68365;SDS011;55283;51.466;5.478;2022-08-21T07:56:24;9.27;;;2.83;;
68365;SDS011;55283;51.466;5.478;2022-08-21T07:58:53;8.20;;;3.00;;
68365;SDS011;55283;51.466;5.478;2022-08-21T08:01:19;9.18;;;2.80;;
68365;SDS011;55283;51.466;5.478;2022-08-21T08:03:47;9.18;;;2.50;;
68365;SDS011;55283;51.466;5.478;2022-08-21T08:06:12;9.90;;;3.00;;
68365;SDS011;55283;51.466;5.478;2022-08-21T08:08:44;8.00;;;2.33;;
68365;SDS011;55283;51.466;5.478;2022-08-21T08:11:10;7.83;;;2.73;;
68365;SDS011;55283;51.466;5.478;2022-08-21T08:13:40;8.70;;;2.30;;
68365;SDS011;55283;51.466;5.478;2022-08-21T08:16:06;9.45;;;2.70;;
68365;SDS011;55283;51.466;5.478;2022-08-21T08:18:32;10.60;;;2.50;;
68365;SDS011;55283;51.466;5.478;2022-08-21T08:20:57;10.53;;;2.70;;
68365;SDS011;55283;51.466;5.478;2022-08-21T08:23:23;11.32;;;2.42;;
68365;SDS011;55283;51.466;5.478;2022-08-21T08:25:48;10.03;;;2.70;;
68365;SDS011;55283;51.466;5.478;2022-08-21T08:28:16;9.75;;;2.25;;
68365;SDS011;55283;51.466;5.478;2022-08-21T08:30:45;7.17;;;2.47;;
68365;SDS011;55283;51.466;5.478;2022-08-21T08:33:14;6.03;;;2.13;;
68365;SDS011;55283;51.466;5.478;2022-08-21T08:35:43;7.68;;;2.40;;
68365;SDS011;55283;51.466;5.478;2022-08-21T08:38:11;9.23;;;2.80;;
68365;SDS011;55283;51.466;5.478;2022-08-21T08:40:39;7.50;;;2.20;;
68365;SDS011;55283;51.466;5.478;2022-08-21T08:43:29;7.43;;;2.47;;
68365;SDS011;55283;51.466;5.478;2022-08-21T08:45:58;8.23;;;2.45;;
68365;SDS011;55283;51.466;5.478;2022-08-21T08:50:59;8.05;;;2.40;;
68365;SDS011;55283;51.466;5.478;2022-08-21T08:53:32;7.40;;;2.13;;
68365;SDS011;55283;51.466;5.478;2022-08-21T08:56:02;9.53;;;2.40;;
68365;SDS011;55283;51.466;5.478;2022-08-21T08:58:30;9.25;;;2.53;;
68365;SDS011;55283;51.466;5.478;2022-08-21T09:01:08;7.53;;;2.30;;
68365;SDS011;55283;51.466;5.478;2022-08-21T09:03:44;6.37;;;2.23;;
68365;SDS011;55283;51.466;5.478;2022-08-21T09:09:22;8.50;;;2.28;;
68365;SDS011;55283;51.466;5.478;2022-08-21T09:12:15;5.68;;;1.90;;
68365;SDS011;55283;51.466;5.478;2022-08-21T09:26:07;6.20;;;2.22;;
68365;SDS011;55283;51.466;5.478;2022-08-21T09:28:37;8.18;;;2.30;;
68365;SDS011;55283;51.466;5.478;2022-08-21T09:31:06;9.20;;;2.50;;
68365;SDS011;55283;51.466;5.478;2022-08-21T09:33:39;7.00;;;2.22;;
68365;SDS011;55283;51.466;5.478;2022-08-21T09:36:04;5.32;;;1.98;;
68365;SDS011;55283;51.466;5.478;2022-08-21T09:38:31;5.93;;;2.03;;
68365;SDS011;55283;51.466;5.478;2022-08-21T09:41:10;8.27;;;2.30;;
68365;SDS011;55283;51.466;5.478;2022-08-21T09:43:40;8.07;;;2.53;;
68365;SDS011;55283;51.466;5.478;2022-08-21T09:46:21;5.70;;;1.80;;
68365;SDS011;55283;51.466;5.478;2022-08-21T09:48:58;6.72;;;1.83;;
68365;SDS011;55283;51.466;5.478;2022-08-21T09:51:29;5.97;;;2.10;;
68365;SDS011;55283;51.466;5.478;2022-08-21T09:56:35;7.57;;;2.10;;
68365;SDS011;55283;51.466;5.478;2022-08-21T09:59:32;6.55;;;1.80;;
68365;SDS011;55283;51.466;5.478;2022-08-21T10:02:07;8.27;;;2.08;;
68365;SDS011;55283;51.466;5.478;2022-08-21T10:05:01;7.00;;;1.80;;
68365;SDS011;55283;51.466;5.478;2022-08-21T10:07:29;6.35;;;1.80;;
68365;SDS011;55283;51.466;5.478;2022-08-21T10:10:06;5.70;;;1.70;;
68365;SDS011;55283;51.466;5.478;2022-08-21T10:18:13;6.00;;;1.88;;
68365;SDS011;55283;51.466;5.478;2022-08-21T10:21:02;5.88;;;1.75;;
68365;SDS011;55283;51.466;5.478;2022-08-21T10:29:15;6.80;;;1.88;;
68365;SDS011;55283;51.466;5.478;2022-08-21T10:32:03;6.47;;;1.70;;
68365;SDS011;55283;51.466;5.478;2022-08-21T10:39:55;5.43;;;1.70;;
68365;SDS011;55283;51.466;5.478;2022-08-21T10:45:21;6.40;;;1.80;;
68365;SDS011;55283;51.466;5.478;2022-08-21T10:48:00;6.78;;;1.98;;
68365;SDS011;55283;51.466;5.478;2022-08-21T10:56:02;5.93;;;2.00;;
68365;SDS011;55283;51.466;5.478;2022-08-21T11:01:48;8.13;;;2.20;;
68365;SDS011;55283;51.466;5.478;2022-08-21T11:04:42;4.43;;;1.80;;
68365;SDS011;55283;51.466;5.478;2022-08-21T11:07:22;4.87;;;1.83;;
68365;SDS011;55283;51.466;5.478;2022-08-21T11:09:56;7.32;;;2.20;;
68365;SDS011;55283;51.466;5.478;2022-08-21T11:12:28;5.82;;;2.08;;
68365;SDS011;55283;51.466;5.478;2022-08-21T11:15:05;7.30;;;2.30;;
68365;SDS011;55283;51.466;5.478;2022-08-21T11:17:54;5.27;;;2.00;;
68365;SDS011;55283;51.466;5.478;2022-08-21T11:20:33;9.77;;;2.40;;
68365;SDS011;55283;51.466;5.478;2022-08-21T11:23:45;6.97;;;2.13;;
68365;SDS011;55283;51.466;5.478;2022-08-21T11:26:34;5.93;;;2.40;;
68365;SDS011;55283;51.466;5.478;2022-08-21T11:31:52;5.72;;;2.08;;
68365;SDS011;55283;51.466;5.478;2022-08-21T11:37:19;5.30;;;2.20;;
68365;SDS011;55283;51.466;5.478;2022-08-21T11:45:11;5.80;;;2.30;;
68365;SDS011;55283;51.466;5.478;2022-08-21T11:50:35;5.07;;;2.15;;
68365;SDS011;55283;51.466;5.478;2022-08-21T11:53:13;5.40;;;2.10;;
68365;SDS011;55283;51.466;5.478;2022-08-21T11:55:47;7.38;;;2.22;;
68365;SDS011;55283;51.466;5.478;2022-08-21T11:58:24;5.05;;;2.28;;
68365;SDS011;55283;51.466;5.478;2022-08-21T12:01:19;7.53;;;2.03;;
68365;SDS011;55283;51.466;5.478;2022-08-21T12:04:23;4.75;;;1.70;;
68365;SDS011;55283;51.466;5.478;2022-08-21T12:06:46;7.10;;;2.10;;
68365;SDS011;55283;51.466;5.478;2022-08-21T12:12:39;4.50;;;2.13;;
68365;SDS011;55283;51.466;5.478;2022-08-21T12:21:05;5.30;;;1.80;;
68365;SDS011;55283;51.466;5.478;2022-08-21T12:23:47;6.15;;;2.20;;
68365;SDS011;55283;51.466;5.478;2022-08-21T12:29:15;6.27;;;2.20;;
68365;SDS011;55283;51.466;5.478;2022-08-21T12:32:02;4.75;;;2.20;;
68365;SDS011;55283;51.466;5.478;2022-08-21T12:34:46;5.50;;;2.15;;
68365;SDS011;55283;51.466;5.478;2022-08-21T12:37:59;6.38;;;2.30;;
68365;SDS011;55283;51.466;5.478;2022-08-21T12:40:20;6.60;;;2.53;;
68365;SDS011;55283;51.466;5.478;2022-08-21T12:42:57;6.18;;;2.58;;
68365;SDS011;55283;51.466;5.478;2022-08-21T12:48:04;4.23;;;2.00;;
68365;SDS011;55283;51.466;5.478;2022-08-21T12:50:52;5.72;;;2.15;;
68365;SDS011;55283;51.466;5.478;2022-08-21T12:53:25;5.07;;;2.00;;
68365;SDS011;55283;51.466;5.478;2022-08-21T12:55:54;4.47;;;1.93;;
68365;SDS011;55283;51.466;5.478;2022-08-21T12:58:25;5.07;;;2.10;;
68365;SDS011;55283;51.466;5.478;2022-08-21T13:01:00;4.13;;;2.03;;
68365;SDS011;55283;51.466;5.478;2022-08-21T13:03:28;5.15;;;2.15;;
68365;SDS011;55283;51.466;5.478;2022-08-21T13:05:55;3.80;;;1.90;;
68365;SDS011;55283;51.466;5.478;2022-08-21T13:08:23;5.45;;;2.03;;
68365;SDS011;55283;51.466;5.478;2022-08-21T13:10:56;5.50;;;2.15;;
68365;SDS011;55283;51.466;5.478;2022-08-21T13:13:28;4.07;;;2.03;;
68365;SDS011;55283;51.466;5.478;2022-08-21T13:15:59;5.55;;;2.33;;
68365;SDS011;55283;51.466;5.478;2022-08-21T13:18:30;4.07;;;2.10;;
68365;SDS011;55283;51.466;5.478;2022-08-21T13:26:54;4.10;;;1.90;;
68365;SDS011;55283;51.466;5.478;2022-08-21T13:29:23;5.57;;;2.10;;
68365;SDS011;55283;51.466;5.478;2022-08-21T13:31:55;4.23;;;1.90;;
68365;SDS011;55283;51.466;5.478;2022-08-21T13:34:24;4.65;;;1.95;;
68365;SDS011;55283;51.466;5.478;2022-08-21T13:36:55;4.35;;;2.10;;
68365;SDS011;55283;51.466;5.478;2022-08-21T13:39:27;3.07;;;1.60;;
68365;SDS011;55283;51.466;5.478;2022-08-21T13:41:54;4.32;;;1.88;;
68365;SDS011;55283;51.466;5.478;2022-08-21T13:47:23;4.22;;;1.90;;
68365;SDS011;55283;51.466;5.478;2022-08-21T13:49:51;9.13;;;2.13;;
68365;SDS011;55283;51.466;5.478;2022-08-21T13:52:22;3.63;;;2.00;;
68365;SDS011;55283;51.466;5.478;2022-08-21T13:54:55;5.15;;;1.90;;
68365;SDS011;55283;51.466;5.478;2022-08-21T13:57:26;4.80;;;1.80;;
68365;SDS011;55283;51.466;5.478;2022-08-21T14:00:09;4.63;;;2.00;;
68365;SDS011;55283;51.466;5.478;2022-08-21T14:02:59;5.23;;;2.10;;
68365;SDS011;55283;51.466;5.478;2022-08-21T14:05:37;4.53;;;1.70;;
68365;SDS011;55283;51.466;5.478;2022-08-21T14:08:21;3.55;;;1.80;;
68365;SDS011;55283;51.466;5.478;2022-08-21T14:10:57;4.90;;;2.10;;
68365;SDS011;55283;51.466;5.478;2022-08-21T14:13:35;4.80;;;1.88;;
68365;SDS011;55283;51.466;5.478;2022-08-21T14:16:18;5.75;;;1.98;;
68365;SDS011;55283;51.466;5.478;2022-08-21T14:21:32;4.53;;;1.90;;
68365;SDS011;55283;51.466;5.478;2022-08-21T14:24:10;4.85;;;2.00;;
68365;SDS011;55283;51.466;5.478;2022-08-21T14:26:42;3.35;;;1.92;;
68365;SDS011;55283;51.466;5.478;2022-08-21T14:29:11;4.53;;;2.00;;
68365;SDS011;55283;51.466;5.478;2022-08-21T14:31:43;4.80;;;1.98;;
68365;SDS011;55283;51.466;5.478;2022-08-21T14:34:14;4.97;;;2.08;;
68365;SDS011;55283;51.466;5.478;2022-08-21T14:36:42;4.13;;;2.10;;
68365;SDS011;55283;51.466;5.478;2022-08-21T14:39:08;6.22;;;2.00;;
68365;SDS011;55283;51.466;5.478;2022-08-21T14:41:34;4.47;;;1.90;;
68365;SDS011;55283;51.466;5.478;2022-08-21T14:44:01;4.37;;;2.20;;
68365;SDS011;55283;51.466;5.478;2022-08-21T14:46:28;6.78;;;2.20;;
68365;SDS011;55283;51.466;5.478;2022-08-21T14:48:55;5.10;;;2.17;;
68365;SDS011;55283;51.466;5.478;2022-08-21T14:51:21;3.55;;;1.98;;
68365;SDS011;55283;51.466;5.478;2022-08-21T14:53:47;3.93;;;2.00;;
68365;SDS011;55283;51.466;5.478;2022-08-21T14:56:13;5.00;;;2.00;;
68365;SDS011;55283;51.466;5.478;2022-08-21T14:58:41;3.85;;;1.70;;
68365;SDS011;55283;51.466;5.478;2022-08-21T15:01:09;4.90;;;2.05;;
68365;SDS011;55283;51.466;5.478;2022-08-21T15:03:37;6.47;;;2.25;;
68365;SDS011;55283;51.466;5.478;2022-08-21T15:06:03;5.97;;;2.13;;
68365;SDS011;55283;51.466;5.478;2022-08-21T15:08:33;4.25;;;1.90;;
68365;SDS011;55283;51.466;5.478;2022-08-21T15:10:58;4.63;;;2.10;;
68365;SDS011;55283;51.466;5.478;2022-08-21T15:13:26;5.50;;;1.77;;
68365;SDS011;55283;51.466;5.478;2022-08-21T15:15:52;4.90;;;1.90;;
68365;SDS011;55283;51.466;5.478;2022-08-21T15:18:19;4.40;;;1.80;;
68365;SDS011;55283;51.466;5.478;2022-08-21T15:20:48;4.38;;;1.63;;
68365;SDS011;55283;51.466;5.478;2022-08-21T15:23:14;4.20;;;2.00;;
68365;SDS011;55283;51.466;5.478;2022-08-21T15:25:41;5.50;;;1.83;;
68365;SDS011;55283;51.466;5.478;2022-08-21T15:28:08;3.70;;;1.80;;
68365;SDS011;55283;51.466;5.478;2022-08-21T15:30:35;4.47;;;1.87;;
68365;SDS011;55283;51.466;5.478;2022-08-21T15:33:04;4.60;;;1.88;;
68365;SDS011;55283;51.466;5.478;2022-08-21T15:35:30;4.20;;;1.67;;
68365;SDS011;55283;51.466;5.478;2022-08-21T15:37:56;7.07;;;1.90;;
68365;SDS011;55283;51.466;5.478;2022-08-21T15:40:21;5.68;;;1.83;;
68365;SDS011;55283;51.466;5.478;2022-08-21T15:42:49;5.43;;;2.07;;
68365;SDS011;55283;51.466;5.478;2022-08-21T15:45:19;6.80;;;2.05;;
68365;SDS011;55283;51.466;5.478;2022-08-21T15:47:45;4.03;;;1.90;;
68365;SDS011;55283;51.466;5.478;2022-08-21T15:50:12;4.93;;;2.00;;
68365;SDS011;55283;51.466;5.478;2022-08-21T15:52:40;5.40;;;2.00;;
68365;SDS011;55283;51.466;5.478;2022-08-21T15:55:06;6.13;;;2.20;;
68365;SDS011;55283;51.466;5.478;2022-08-21T15:57:32;3.25;;;2.00;;
68365;SDS011;55283;51.466;5.478;2022-08-21T16:00:02;4.72;;;1.92;;
68365;SDS011;55283;51.466;5.478;2022-08-21T16:02:39;4.75;;;2.20;;
68365;SDS011;55283;51.466;5.478;2022-08-21T16:05:07;5.27;;;2.17;;
68365;SDS011;55283;51.466;5.478;2022-08-21T16:07:37;4.95;;;2.05;;
68365;SDS011;55283;51.466;5.478;2022-08-21T16:10:03;3.97;;;1.75;;
68365;SDS011;55283;51.466;5.478;2022-08-21T16:12:34;5.33;;;2.00;;
68365;SDS011;55283;51.466;5.478;2022-08-21T16:15:04;4.60;;;2.00;;
68365;SDS011;55283;51.466;5.478;2022-08-21T16:17:33;4.47;;;2.05;;
68365;SDS011;55283;51.466;5.478;2022-08-21T16:20:01;5.90;;;2.10;;
68365;SDS011;55283;51.466;5.478;2022-08-21T16:22:32;4.57;;;1.92;;
68365;SDS011;55283;51.466;5.478;2022-08-21T16:24:58;4.30;;;1.83;;
68365;SDS011;55283;51.466;5.478;2022-08-21T16:27:26;8.25;;;1.92;;
68365;SDS011;55283;51.466;5.478;2022-08-21T16:29:51;7.93;;;2.20;;